Time;durP1;ratioP1;P1;durP2;ratioP2;P2;SDS_P1;SDS_P2;PMS_P1;PMS_P2;Temp;Humidity;BMP_temperature;BMP_pressure;BME280_temperature;BME280_humidity;BME280_pressure;Samples;Min_cycle;Max_cycle;Signal;HPM_P1;HPM_P2
2023/03/10 00:01:10;;;;;;;4.80;1.60;;;;;;;10.39;71.67;96811.13;5116536;27;40962;-87
2023/03/10 00:03:38;;;;;;;3.53;1.53;;;;;;;10.45;71.49;96820.31;5132426;27;43699;-87
2023/03/10 00:06:09;;;;;;;4.17;1.83;;;;;;;10.48;71.19;96820.03;5116196;27;41178;-85
2023/03/10 00:08:37;;;;;;;4.43;2.07;;;;;;;10.42;71.00;96805.53;5133707;27;38921;-83
2023/03/10 00:11:05;;;;;;;6.23;2.10;;;;;;;10.59;70.88;96816.34;5116375;27;40846;-90
2023/03/10 00:13:33;;;;;;;5.27;1.73;;;;;;;10.53;70.34;96795.75;5116290;27;42714;-89
2023/03/10 00:16:01;;;;;;;4.40;1.60;;;;;;;10.60;70.04;96807.44;5116302;27;41019;-85
2023/03/10 00:18:29;;;;;;;5.60;1.87;;;;;;;10.77;69.58;96811.94;5115866;27;40094;-88
2023/03/10 00:20:57;;;;;;;4.43;1.73;;;;;;;10.72;69.01;96793.88;5133358;27;42747;-88
2023/03/10 00:23:27;;;;;;;3.17;1.70;;;;;;;10.76;69.22;96794.38;5115879;27;41931;-84
2023/03/10 00:25:56;;;;;;;5.13;2.30;;;;;;;10.87;68.64;96810.09;5133286;27;42192;-87
2023/03/10 00:28:24;;;;;;;5.03;1.50;;;;;;;10.90;68.78;96793.06;5115442;27;39017;-85
2023/03/10 00:31:00;;;;;;;4.77;1.50;;;;;;;11.09;68.62;96812.34;5116230;27;42665;-84
2023/03/10 00:33:29;;;;;;;6.53;1.30;;;;;;;11.16;68.35;96810.75;5133155;27;42794;-88
2023/03/10 00:36:07;;;;;;;4.10;1.33;;;;;;;11.11;69.06;96781.25;5116447;27;41362;-93
2023/03/10 00:38:37;;;;;;;4.43;1.60;;;;;;;11.31;68.65;96783.75;5131310;27;39809;-90
2023/03/10 00:41:07;;;;;;;1.70;1.00;;;;;;;11.29;68.48;96765.34;5116350;27;40690;-85
2023/03/10 00:43:35;;;;;;;2.37;1.00;;;;;;;11.42;68.47;96772.91;5133202;27;43171;-85
2023/03/10 00:46:03;;;;;;;2.10;1.10;;;;;;;11.46;68.77;96775.13;5115932;27;41797;-85
2023/03/10 00:48:32;;;;;;;1.80;0.87;;;;;;;11.50;68.84;96775.63;5132843;27;39840;-89
2023/03/10 00:51:00;;;;;;;4.03;1.00;;;;;;;11.48;68.40;96765.19;5132863;27;41721;-87
2023/03/10 00:53:28;;;;;;;8.03;1.00;;;;;;;11.50;68.41;96763.19;5116075;27;43307;-85
2023/03/10 00:56:00;;;;;;;1.70;1.00;;;;;;;11.59;68.09;96769.44;5115644;27;42352;-92
2023/03/10 00:58:29;;;;;;;2.07;1.03;;;;;;;11.62;68.40;96778.91;5115950;27;39004;-89
2023/03/10 01:00:58;;;;;;;1.43;0.90;;;;;;;11.48;68.93;96751.13;5133162;27;42083;-84
2023/03/10 01:03:26;;;;;;;1.57;1.00;;;;;;;11.63;69.62;96760.16;5132730;27;43088;-89
2023/03/10 01:05:55;;;;;;;1.77;0.80;;;;;;;11.55;70.10;96746.84;5115757;27;40967;-91
2023/03/10 01:08:24;;;;;;;3.73;1.13;;;;;;;11.66;70.18;96764.31;5116098;27;40355;-85
2023/03/10 01:10:52;;;;;;;1.97;1.00;;;;;;;11.66;69.89;96740.47;5122733;27;40624;-86
2023/03/10 01:13:22;;;;;;;1.93;1.00;;;;;;;11.70;70.46;96745.31;5150434;27;43251;-81
2023/03/10 01:15:50;;;;;;;2.03;0.90;;;;;;;11.67;70.55;96740.31;5151236;27;44202;-81
2023/03/10 01:18:18;;;;;;;2.47;0.80;;;;;;;11.60;70.74;96720.72;5133896;27;38895;-81
2023/03/10 01:20:46;;;;;;;2.30;0.70;;;;;;;11.58;70.67;96714.75;5149353;27;43306;-85
2023/03/10 01:23:16;;;;;;;1.50;0.57;;;;;;;11.61;71.13;96713.59;5129536;27;41748;-84
2023/03/10 01:25:44;;;;;;;1.50;0.57;;;;;;;11.67;71.22;96719.09;5116394;27;41044;-83
2023/03/10 01:28:12;;;;;;;2.17;1.00;;;;;;;11.58;71.20;96704.13;5117191;27;38962;-84
2023/03/10 01:30:43;;;;;;;1.90;0.80;;;;;;;11.71;71.14;96709.03;5116835;27;40545;-83
2023/03/10 01:33:12;;;;;;;1.60;0.70;;;;;;;11.77;71.40;96706.63;5133092;27;42999;-84
2023/03/10 01:35:40;;;;;;;2.53;0.80;;;;;;;11.78;71.41;96705.63;5115968;27;42514;-89
2023/03/10 01:38:09;;;;;;;0.97;0.60;;;;;;;11.80;71.27;96698.34;5115111;27;40072;-86
2023/03/10 01:40:38;;;;;;;1.77;0.60;;;;;;;11.78;72.18;96695.03;5135492;27;41619;-83
2023/03/10 01:43:27;;;;;;;1.00;0.60;;;;;;;11.65;73.10;96667.22;5119634;27;42980;-86
2023/03/10 01:46:52;;;;;;;1.30;0.80;;;;;;;11.65;73.11;96670.72;5140279;27;43215;-83
2023/03/10 01:49:28;;;;;;;1.33;0.50;;;;;;;11.55;73.97;96656.72;5123872;27;39011;-85
2023/03/10 01:52:01;;;;;;;0.80;0.50;;;;;;;11.31;73.87;96622.13;5118716;27;40552;-85
2023/03/10 01:54:36;;;;;;;1.97;0.67;;;;;;;11.49;74.01;96646.78;5118599;27;41985;-81
2023/03/10 01:57:05;;;;;;;1.73;0.73;;;;;;;11.38;73.95;96629.28;5118170;27;42311;-84
2023/03/10 01:59:34;;;;;;;2.97;0.83;;;;;;;11.52;73.90;96647.25;5136187;27;40770;-82
2023/03/10 02:02:04;;;;;;;0.57;0.57;;;;;;;11.48;73.61;96631.84;5135800;27;42752;-88
2023/03/10 02:04:36;;;;;;;0.60;0.60;;;;;;;11.60;73.55;96643.84;5118125;27;43841;-87
2023/03/10 02:07:06;;;;;;;0.83;0.80;;;;;;;11.60;73.39;96656.28;5118681;27;41259;-83
2023/03/10 02:09:37;;;;;;;1.50;0.57;;;;;;;11.51;73.40;96608.50;5118520;27;39198;-88
2023/03/10 02:12:08;;;;;;;2.03;0.80;;;;;;;11.47;73.47;96614.28;5118960;27;41805;-85
2023/03/10 02:14:37;;;;;;;3.17;0.90;;;;;;;11.53;74.47;96617.13;5118129;27;42275;-85
2023/03/10 02:17:12;;;;;;;1.00;0.60;;;;;;;11.46;75.38;96607.31;5135775;27;42856;-84
2023/03/10 02:19:53;;;;;;;1.30;0.57;;;;;;;11.19;76.62;96576.50;5118151;27;39362;-86
2023/03/10 02:22:21;;;;;;;1.50;0.60;;;;;;;11.07;77.72;96586.53;5133127;27;41755;-90
2023/03/10 02:24:52;;;;;;;1.13;0.50;;;;;;;10.98;78.83;96573.38;5118416;27;43268;-89
2023/03/10 02:27:24;;;;;;;0.83;0.40;;;;;;;10.96;79.18;96555.00;5118540;27;41105;-86
2023/03/10 02:29:59;;;;;;;0.63;0.50;;;;;;;10.88;79.54;96554.91;5118927;27;40117;-93
2023/03/10 02:32:29;;;;;;;0.67;0.50;;;;;;;10.96;79.48;96570.88;5119121;27;40675;-88
2023/03/10 02:34:57;;;;;;;1.00;0.53;;;;;;;10.87;79.30;96561.22;5118040;27;43231;-85
2023/03/10 02:37:28;;;;;;;0.67;0.57;;;;;;;10.95;79.30;96566.56;5118428;27;40809;-85
2023/03/10 08:23:05;;;;;;;1.93;0.83;;;;;;;11.57;91.47;96452.50;5108466;28;21693;-83
2023/03/10 08:25:33;;;;;;;2.13;1.00;;;;;;;12.08;88.95;96460.28;5090952;28;38820;-80
2023/03/10 08:28:00;;;;;;;1.63;1.00;;;;;;;12.51;82.91;96480.34;5090482;28;40853;-81
2023/03/10 08:30:28;;;;;;;0.90;0.60;;;;;;;12.81;80.80;96486.00;5107910;28;43684;-78
2023/03/10 08:32:56;;;;;;;1.73;0.80;;;;;;;12.98;77.97;96492.97;5107191;28;41689;-80
2023/03/10 08:35:24;;;;;;;3.70;0.80;;;;;;;13.23;77.03;96494.56;5107794;28;40169;-80
2023/03/10 08:37:52;;;;;;;1.30;0.60;;;;;;;13.43;74.76;96486.22;5107152;28;42012;-81
2023/03/10 08:40:21;;;;;;;2.00;0.80;;;;;;;13.83;73.42;96510.00;5107953;28;43672;-79
2023/03/10 08:42:49;;;;;;;2.27;1.00;;;;;;;14.19;71.50;96510.31;5107536;28;42735;-81
2023/03/10 08:45:16;;;;;;;2.50;0.90;;;;;;;14.49;69.94;96495.31;5090865;28;40260;-82
2023/03/10 08:47:44;;;;;;;1.70;1.00;;;;;;;14.59;68.47;96495.06;5104509;28;40765;-79
2023/03/10 08:50:12;;;;;;;2.57;0.87;;;;;;;14.71;67.67;96513.13;5090655;28;43190;-81
2023/03/10 08:52:41;;;;;;;2.00;0.90;;;;;;;14.78;66.61;96504.44;5085211;28;41581;-88
2023/03/10 08:55:11;;;;;;;1.93;1.00;;;;;;;14.60;66.59;96489.56;5071193;28;40074;-82
2023/03/10 08:57:41;;;;;;;1.83;0.70;;;;;;;14.63;66.87;96507.03;5084591;28;40995;-84
2023/03/10 09:00:11;;;;;;;2.80;0.80;;;;;;;14.47;66.25;96492.00;5107922;28;41773;-84
2023/03/10 09:02:39;;;;;;;2.50;1.03;;;;;;;14.40;66.77;96485.75;5107145;28;41593;-83
2023/03/10 09:05:09;;;;;;;2.47;0.97;;;;;;;14.40;65.59;96475.09;5108280;28;39092;-82
2023/03/10 09:07:37;;;;;;;1.50;0.97;;;;;;;14.14;65.79;96427.50;5107004;28;41988;-83
2023/03/10 09:10:06;;;;;;;2.37;1.00;;;;;;;14.58;65.72;96498.78;5090890;28;42756;-80
2023/03/10 09:12:33;;;;;;;1.30;0.90;;;;;;;14.64;65.72;96492.72;5086680;28;42322;-81
2023/03/10 09:15:02;;;;;;;1.37;0.90;;;;;;;14.68;65.99;96473.53;5087756;28;38847;-83
2023/03/10 09:17:30;;;;;;;1.87;0.87;;;;;;;15.18;64.56;96496.06;5082903;28;40688;-81
2023/03/10 09:19:57;;;;;;;2.20;0.97;;;;;;;15.56;64.03;96498.69;5108702;28;42648;-82
2023/03/10 09:22:25;;;;;;;1.27;1.10;;;;;;;15.84;62.25;96501.50;5088821;28;42090;-78
2023/03/10 09:24:52;;;;;;;3.00;1.00;;;;;;;16.15;61.09;96504.78;5090639;28;38866;-81
2023/03/10 09:27:20;;;;;;;2.67;1.47;;;;;;;16.30;60.17;96497.56;5106660;28;40850;-82
2023/03/10 09:29:48;;;;;;;2.93;1.50;;;;;;;16.22;58.45;96531.53;5090145;28;42617;-82
2023/03/10 09:32:17;;;;;;;1.80;0.93;;;;;;;15.56;59.32;96510.19;5116729;28;41160;-83
2023/03/10 09:34:45;;;;;;;1.63;0.80;;;;;;;15.27;59.95;96499.47;5113197;28;40774;-84
2023/03/10 09:37:12;;;;;;;0.83;0.53;;;;;;;15.00;59.78;96514.22;5112944;28;41924;-84
2023/03/10 09:39:40;;;;;;;0.87;0.73;;;;;;;14.84;59.97;96519.69;5096379;28;41562;-82
2023/03/10 09:42:24;;;;;;;1.43;0.70;;;;;;;14.45;60.26;96504.69;5091252;28;40795;-83
2023/03/10 09:45:03;;;;;;;0.83;0.60;;;;;;;14.14;60.52;96506.50;5070312;28;38677;-87
2023/03/10 09:47:46;;;;;;;1.90;0.70;;;;;;;13.88;60.30;96480.19;5093084;28;41779;-81
2023/03/10 09:50:26;;;;;;;1.23;0.60;;;;;;;14.10;60.34;96523.81;5090226;28;42973;-81
2023/03/10 09:53:01;;;;;;;0.67;0.50;;;;;;;14.34;60.08;96518.38;5101109;28;42427;-80
2023/03/10 09:55:34;;;;;;;3.03;0.70;;;;;;;14.78;58.83;96515.91;5085863;28;41430;-84
2023/03/10 09:58:02;;;;;;;1.33;0.80;;;;;;;15.09;58.04;96534.44;5077680;28;41018;-83
2023/03/10 10:00:35;;;;;;;1.07;0.53;;;;;;;15.01;57.15;96483.91;5076694;28;41658;-84
2023/03/10 10:03:11;;;;;;;2.30;0.70;;;;;;;15.19;57.84;96529.72;5076231;28;41381;-86
2023/03/10 10:05:41;;;;;;;0.83;0.60;;;;;;;14.90;57.96;96534.97;5076503;28;39227;-84
2023/03/10 10:08:20;;;;;;;2.83;0.60;;;;;;;14.77;59.47;96502.78;5076546;28;40848;-84
2023/03/10 10:10:52;;;;;;;0.80;0.70;;;;;;;14.72;59.70;96512.13;5093796;28;42676;-84
2023/03/10 10:13:21;;;;;;;1.27;0.60;;;;;;;14.29;60.90;96504.75;5093380;28;42692;-84
2023/03/10 10:15:57;;;;;;;2.07;0.90;;;;;;;14.07;62.00;96506.41;5076386;28;38863;-84
2023/03/10 10:18:38;;;;;;;1.50;0.90;;;;;;;13.97;61.46;96521.75;5090912;28;41666;-86
2023/03/10 10:21:13;;;;;;;2.77;1.00;;;;;;;13.84;61.30;96516.16;5075648;28;43018;-84
2023/03/10 10:23:43;;;;;;;1.87;0.70;;;;;;;13.86;61.63;96512.31;5091357;28;42386;-83
2023/03/10 10:26:14;;;;;;;1.17;0.80;;;;;;;13.90;61.49;96521.59;5090675;28;39744;-80
2023/03/10 10:28:45;;;;;;;1.30;0.50;;;;;;;14.15;61.30;96542.75;5094289;28;41522;-82
2023/03/10 10:31:16;;;;;;;1.60;0.90;;;;;;;14.47;60.55;96547.91;5075663;28;42080;-87
2023/03/10 10:33:57;;;;;;;2.90;0.70;;;;;;;16.03;56.99;96559.66;5076555;28;40975;-83
2023/03/10 10:36:27;;;;;;;1.93;0.83;;;;;;;19.86;50.15;96581.47;5075116;28;38824;-83
2023/03/10 10:38:56;;;;;;;2.30;0.83;;;;;;;23.63;42.15;96642.75;5076116;28;42638;-83
2023/03/10 10:41:29;;;;;;;2.00;0.90;;;;;;;24.49;38.67;96646.69;5092025;28;42814;-81
2023/03/10 10:44:00;;;;;;;1.30;0.70;;;;;;;24.70;36.49;96651.47;5091962;28;42164;-81
2023/03/10 10:46:29;;;;;;;1.67;0.93;;;;;;;24.55;36.12;96651.97;5091167;28;38823;-81
2023/03/10 10:49:07;;;;;;;2.17;1.00;;;;;;;23.04;38.11;96639.00;5126741;27;42053;-81
2023/03/10 10:51:37;;;;;;;1.47;0.80;;;;;;;21.67;40.16;96626.75;5091854;28;43121;-81
2023/03/10 10:54:22;;;;;;;1.80;0.83;;;;;;;20.33;42.38;96586.50;5093336;28;42182;-85
2023/03/10 10:56:55;;;;;;;1.53;0.87;;;;;;;19.54;43.80;96581.28;5091606;28;39787;-80
2023/03/10 10:59:27;;;;;;;2.67;0.90;;;;;;;19.21;44.96;96591.19;5075380;28;42370;-79
2023/03/10 11:01:57;;;;;;;2.17;0.87;;;;;;;18.15;46.26;96557.88;5071697;28;42821;-82
2023/03/10 11:04:28;;;;;;;1.50;0.80;;;;;;;17.94;48.21;96556.09;5072050;28;42245;-80
2023/03/10 11:07:11;;;;;;;2.03;0.90;;;;;;;18.10;47.50;96563.81;5078783;28;40832;-84
2023/03/10 11:09:39;;;;;;;2.23;0.97;;;;;;;18.23;47.96;96566.56;5089462;28;41670;-80
2023/03/10 11:12:18;;;;;;;1.93;0.80;;;;;;;18.36;48.10;96548.88;5091415;28;42528;-84
2023/03/10 11:15:00;;;;;;;3.20;0.87;;;;;;;19.60;45.14;96555.50;5089054;28;42307;-83
2023/03/10 11:17:33;;;;;;;0.70;0.60;;;;;;;20.74;44.01;96571.88;5074428;28;39069;-82
2023/03/10 11:20:13;;;;;;;5.87;1.23;;;;;;;23.06;40.45;96579.41;5089131;28;42810;-83
2023/03/10 11:22:46;;;;;;;2.30;0.90;;;;;;;24.85;36.49;96602.25;5092273;28;42638;-84
2023/03/10 11:25:23;;;;;;;3.40;1.33;;;;;;;27.47;33.17;96626.28;5075251;28;40817;-85
2023/03/10 11:28:02;;;;;;;1.90;1.10;;;;;;;28.91;30.48;96635.25;5092439;28;40858;-82
2023/03/10 11:30:32;;;;;;;2.00;0.93;;;;;;;28.86;29.73;96635.22;5092122;28;41969;-81
2023/03/10 11:33:14;;;;;;;2.50;1.10;;;;;;;28.98;29.54;96607.75;5091328;28;44153;-83
2023/03/10 11:35:46;;;;;;;2.80;0.90;;;;;;;28.64;29.15;96624.47;5091756;28;41472;-82
2023/03/10 11:38:27;;;;;;;1.27;0.90;;;;;;;28.44;29.73;96608.03;5091500;28;38591;-85
2023/03/10 11:40:59;;;;;;;1.17;0.83;;;;;;;26.86;31.25;96613.09;5091506;28;42072;-84
2023/03/10 11:43:33;;;;;;;2.00;1.00;;;;;;;25.57;33.01;96599.78;5074705;28;42582;-82
2023/03/10 11:46:06;;;;;;;1.30;0.90;;;;;;;24.65;35.07;96572.88;5091024;28;42178;-81
2023/03/10 11:48:45;;;;;;;1.20;0.87;;;;;;;24.53;35.33;96558.56;5089560;28;40204;-84
2023/03/10 11:51:25;;;;;;;0.80;0.73;;;;;;;24.54;35.50;96569.16;5088829;28;42861;-82
2023/03/10 11:53:56;;;;;;;1.20;0.73;;;;;;;23.58;36.94;96553.47;5089718;28;43444;-82
2023/03/10 11:56:26;;;;;;;0.53;0.50;;;;;;;22.08;40.65;96536.44;5090683;28;42158;-83
2023/03/10 11:58:58;;;;;;;1.50;0.63;;;;;;;20.71;43.07;96530.09;5075106;28;40352;-90
2023/03/10 12:01:30;;;;;;;1.23;0.70;;;;;;;19.62;45.89;96503.25;5091454;28;41023;-88
2023/03/10 12:04:06;;;;;;;3.17;0.73;;;;;;;18.80;48.14;96503.66;5075034;28;41780;-92
2023/03/10 12:06:42;;;;;;;1.77;0.70;;;;;;;18.25;50.16;96489.50;5070263;28;43191;-82
2023/03/10 12:09:16;;;;;;;1.83;0.63;;;;;;;17.83;51.07;96482.53;5071549;28;39090;-81
2023/03/10 12:11:44;;;;;;;1.70;1.27;;;;;;;17.49;52.59;96466.47;5075148;28;42928;-81
2023/03/10 12:14:14;;;;;;;1.10;0.70;;;;;;;17.47;52.93;96458.63;5091158;28;42659;-88
2023/03/10 12:16:42;;;;;;;1.67;1.03;;;;;;;17.50;52.77;96447.56;5090640;28;42028;-82
2023/03/10 12:19:10;;;;;;;2.30;0.87;;;;;;;17.63;52.81;96470.06;5091213;28;40367;-80
2023/03/10 12:21:40;;;;;;;1.87;0.60;;;;;;;17.65;52.37;96458.16;5090176;28;40584;-79
2023/03/10 12:24:44;;;;;;;1.70;0.90;;;;;;;17.53;52.74;96452.50;5091111;28;41967;-80
2023/03/10 12:27:11;;;;;;;1.17;1.03;;;;;;;17.48;52.44;96460.28;5090377;28;41412;-81
2023/03/10 12:29:41;;;;;;;2.17;0.90;;;;;;;18.79;50.77;96466.34;5074369;28;39263;-79
2023/03/10 12:32:46;;;;;;;2.70;0.57;;;;;;;19.13;49.63;96462.63;5076653;28;40610;-81
2023/03/10 12:35:46;;;;;;;2.00;0.70;;;;;;;18.77;49.86;96466.53;5092609;28;42825;-81
2023/03/10 12:38:40;;;;;;;1.40;0.60;;;;;;;18.97;48.21;96486.13;5089926;28;41370;-81
2023/03/10 12:41:09;;;;;;;1.57;0.80;;;;;;;18.87;48.27;96466.94;5106556;28;39150;-82
2023/03/10 12:44:07;;;;;;;0.70;0.50;;;;;;;19.22;47.15;96496.25;5074532;28;40799;-85
2023/03/10 12:46:46;;;;;;;0.80;0.60;;;;;;;20.35;45.40;96498.47;5090305;28;41641;-81
2023/03/10 12:49:31;;;;;;;1.33;0.60;;;;;;;20.24;44.51;96491.03;5074337;28;42084;-82
2023/03/10 12:52:12;;;;;;;0.80;0.50;;;;;;;21.04;43.06;96508.34;5069881;28;38826;-82
2023/03/10 12:55:05;;;;;;;0.73;0.40;;;;;;;22.15;41.92;96510.22;5054376;28;41380;-84
2023/03/10 12:57:39;;;;;;;1.13;0.50;;;;;;;23.32;39.81;96511.47;5084073;28;42757;-82
2023/03/10 13:00:27;;;;;;;1.23;0.53;;;;;;;24.09;37.31;96525.72;5088957;28;42408;-80
2023/03/10 13:03:01;;;;;;;1.07;0.67;;;;;;;23.21;37.61;96532.03;5090333;28;40038;-84
2023/03/10 13:05:32;;;;;;;0.93;0.40;;;;;;;22.13;39.62;96499.66;5074425;28;40887;-82
2023/03/10 13:08:04;;;;;;;0.70;0.40;;;;;;;21.37;40.27;96501.91;5090900;28;41723;-79
2023/03/10 13:10:35;;;;;;;0.67;0.40;;;;;;;20.64;41.63;96501.63;5110794;28;42080;-81
2023/03/10 13:13:05;;;;;;;0.30;0.30;;;;;;;20.03;42.67;96488.63;5093792;28;40342;-82
2023/03/10 13:15:34;;;;;;;1.83;0.63;;;;;;;19.85;43.23;96469.72;5076895;28;41466;-83
2023/03/10 13:18:18;;;;;;;1.20;0.50;;;;;;;19.58;43.77;96455.53;5092661;28;43749;-80
2023/03/10 13:20:46;;;;;;;1.43;0.47;;;;;;;19.36;43.82;96465.69;5076045;28;42178;-80
2023/03/10 13:23:21;;;;;;;0.80;0.40;;;;;;;19.39;44.11;96476.00;5093544;28;39352;-83
2023/03/10 13:25:55;;;;;;;0.47;0.37;;;;;;;20.18;43.39;96483.00;5090865;28;41459;-78
2023/03/10 13:28:24;;;;;;;0.50;0.50;;;;;;;19.97;43.44;96462.63;5093079;28;42159;-80
2023/03/10 13:30:52;;;;;;;0.70;0.40;;;;;;;19.46;43.73;96479.50;5076662;28;41506;-79
2023/03/10 13:33:22;;;;;;;0.67;0.30;;;;;;;18.55;44.96;96465.00;5093171;28;39966;-79
2023/03/10 13:35:50;;;;;;;0.53;0.43;;;;;;;18.07;46.31;96448.22;5093203;28;41089;-83
2023/03/10 13:38:20;;;;;;;0.93;0.40;;;;;;;17.80;46.53;96437.41;5092873;28;41653;-79
2023/03/10 13:40:50;;;;;;;0.73;0.43;;;;;;;17.86;47.45;96473.28;5110181;28;42116;-80
2023/03/10 13:43:36;;;;;;;0.77;0.30;;;;;;;17.51;47.84;96459.09;5092827;28;38939;-79
2023/03/10 13:46:08;;;;;;;0.40;0.40;;;;;;;17.27;47.80;96460.38;5092861;28;40681;-80
2023/03/10 13:48:37;;;;;;;0.43;0.43;;;;;;;17.01;49.17;96452.16;5076586;28;41683;-79
2023/03/10 13:51:17;;;;;;;1.17;0.30;;;;;;;16.63;50.06;96433.78;5092698;28;42429;-81
2023/03/10 13:53:46;;;;;;;0.43;0.30;;;;;;;16.41;50.98;96422.25;5077008;28;40319;-82
2023/03/10 13:56:25;;;;;;;0.50;0.50;;;;;;;16.16;52.57;96432.50;5075479;28;40463;-81
2023/03/10 13:58:56;;;;;;;0.40;0.40;;;;;;;15.82;54.50;96413.66;5110009;28;41534;-82
2023/03/10 14:01:27;;;;;;;0.40;0.40;;;;;;;15.44;55.45;96421.78;5091418;28;42038;-86
2023/03/10 14:03:57;;;;;;;0.47;0.30;;;;;;;15.32;55.99;96406.44;5077132;28;39339;-87
2023/03/10 14:06:28;;;;;;;0.50;0.40;;;;;;;15.20;56.58;96398.06;5093316;28;42462;-91
2023/03/10 14:08:56;;;;;;;0.50;0.50;;;;;;;15.24;56.93;96420.66;5094093;28;43140;-87
2023/03/10 14:11:32;;;;;;;0.30;0.30;;;;;;;14.97;56.78;96365.34;5072545;28;42192;-82
2023/03/10 14:14:04;;;;;;;0.40;0.40;;;;;;;15.45;56.66;96415.41;5055648;28;38347;-83
2023/03/10 14:16:52;;;;;;;0.47;0.40;;;;;;;15.51;55.91;96426.34;5059495;28;41075;-79
2023/03/10 14:19:53;;;;;;;0.43;0.43;;;;;;;15.38;55.41;96408.34;5075550;28;41634;-80
2023/03/10 14:22:30;;;;;;;0.97;0.40;;;;;;;15.07;56.96;96419.22;5091327;28;41218;-83
2023/03/10 14:24:59;;;;;;;0.50;0.37;;;;;;;14.87;57.66;96418.06;5092900;28;38970;-89
2023/03/10 14:27:27;;;;;;;0.70;0.50;;;;;;;14.79;58.86;96412.84;5072315;28;43383;-81
2023/03/10 14:30:00;;;;;;;0.77;0.40;;;;;;;14.77;60.47;96382.88;5072951;28;42558;-82
2023/03/10 14:32:29;;;;;;;0.50;0.40;;;;;;;14.79;60.98;96378.22;5083724;28;42290;-84
2023/03/10 14:34:57;;;;;;;0.40;0.40;;;;;;;14.83;60.47;96403.47;5075965;28;40564;-89
2023/03/10 14:37:24;;;;;;;0.40;0.40;;;;;;;14.55;60.77;96382.78;5073087;28;42154;-90
2023/03/10 14:39:52;;;;;;;0.30;0.30;;;;;;;14.33;61.32;96412.91;5056426;28;42966;-81
2023/03/10 14:42:25;;;;;;;1.03;0.57;;;;;;;14.05;63.15;96393.13;5083123;28;41279;-81
2023/03/10 14:44:53;;;;;;;0.40;0.40;;;;;;;13.73;64.23;96402.97;5092996;28;39129;-83
2023/03/10 14:47:22;;;;;;;0.30;0.30;;;;;;;13.46;66.58;96393.69;5092539;28;41882;-81
2023/03/10 14:49:50;;;;;;;0.63;0.40;;;;;;;12.96;68.16;96378.06;5127104;27;43202;-85
2023/03/10 14:52:19;;;;;;;1.20;0.60;;;;;;;12.71;69.53;96389.75;5071510;28;41168;-83
2023/03/10 14:54:47;;;;;;;0.30;0.30;;;;;;;12.56;71.51;96392.28;5106659;28;40211;-82
2023/03/10 14:57:21;;;;;;;0.50;0.50;;;;;;;12.02;72.51;96328.28;5066355;28;40573;-84
2023/03/10 14:59:49;;;;;;;0.50;0.50;;;;;;;12.32;72.94;96389.63;5075002;28;42937;-81
2023/03/10 15:02:21;;;;;;;0.40;0.40;;;;;;;12.26;74.16;96393.78;5071275;28;41421;-83
2023/03/10 15:04:50;;;;;;;2.73;0.80;;;;;;;12.10;75.54;96415.03;5069225;28;39819;-84
2023/03/10 15:07:18;;;;;;;0.63;0.40;;;;;;;11.69;75.13;96361.91;5067132;28;40461;-85
2023/03/10 15:09:46;;;;;;;0.57;0.50;;;;;;;11.56;76.56;96345.63;5077058;28;41782;-82
2023/03/10 15:12:16;;;;;;;0.40;0.40;;;;;;;11.80;78.69;96403.19;5076722;28;41078;-84
2023/03/10 15:14:51;;;;;;;0.97;0.50;;;;;;;11.51;79.31;96375.28;5143430;27;40389;-80
2023/03/10 15:17:21;;;;;;;1.73;0.50;;;;;;;11.58;79.61;96411.75;5080663;28;41646;-82
2023/03/10 15:19:50;;;;;;;1.30;0.40;;;;;;;11.47;81.47;96415.53;5075310;28;41947;-83
2023/03/10 15:22:17;;;;;;;0.67;0.40;;;;;;;11.36;82.35;96406.06;5090759;28;41680;-80
2023/03/10 15:24:45;;;;;;;0.90;0.90;;;;;;;11.14;83.04;96391.53;5088347;28;40550;-84
2023/03/10 15:27:14;;;;;;;1.23;0.87;;;;;;;11.10;85.15;96402.63;5075255;28;40923;-83
2023/03/10 15:29:41;;;;;;;1.90;1.17;;;;;;;11.05;85.17;96404.91;5075273;28;42139;-87
2023/03/10 15:32:09;;;;;;;1.13;1.00;;;;;;;11.11;86.26;96415.72;5074332;28;40947;-84
2023/03/10 15:34:37;;;;;;;1.13;0.90;;;;;;;11.12;86.07;96427.97;5092099;28;40347;-86
2023/03/10 15:37:07;;;;;;;1.00;0.80;;;;;;;11.05;87.83;96420.81;5075257;28;40576;-85
2023/03/10 15:39:35;;;;;;;0.70;0.70;;;;;;;10.67;87.17;96369.97;5075465;28;41841;-86
2023/03/10 15:42:03;;;;;;;0.70;0.70;;;;;;;10.98;87.25;96404.75;5075263;28;41148;-84
2023/03/10 15:44:31;;;;;;;0.70;0.70;;;;;;;10.96;87.78;96398.75;5075220;28;38920;-86
2023/03/10 15:46:59;;;;;;;1.43;0.80;;;;;;;11.09;88.26;96420.34;5074753;28;41403;-84
2023/03/10 15:49:27;;;;;;;1.43;0.60;;;;;;;10.92;88.32;96410.66;5076680;28;43021;-86
2023/03/10 15:51:56;;;;;;;0.70;0.50;;;;;;;10.91;89.16;96408.16;5076606;28;41238;-84
2023/03/10 15:54:25;;;;;;;0.50;0.50;;;;;;;10.90;89.33;96402.03;5075469;28;39508;-83
2023/03/10 15:56:53;;;;;;;0.50;0.50;;;;;;;10.93;89.99;96422.91;5091775;28;40547;-84
2023/03/10 15:59:21;;;;;;;0.87;0.80;;;;;;;10.75;90.61;96403.63;5075499;28;41728;-85
2023/03/10 16:01:50;;;;;;;0.50;0.50;;;;;;;10.70;90.96;96403.25;5075475;28;41979;-86
2023/03/10 16:04:18;;;;;;;0.60;0.50;;;;;;;10.67;91.61;96408.84;5093293;28;39919;-84
2023/03/10 16:06:46;;;;;;;0.60;0.57;;;;;;;10.59;92.03;96408.81;5074965;28;40678;-85
2023/03/10 16:09:14;;;;;;;0.50;0.50;;;;;;;10.61;92.10;96409.50;5075182;28;42959;-85
2023/03/10 16:11:43;;;;;;;0.63;0.63;;;;;;;10.58;92.26;96433.63;5091570;28;41157;-83
2023/03/10 16:14:11;;;;;;;0.40;0.40;;;;;;;10.61;91.89;96428.00;5092259;28;38881;-85
2023/03/10 16:16:39;;;;;;;0.70;0.50;;;;;;;10.55;90.92;96429.44;5092163;28;42204;-84
2023/03/10 16:19:06;;;;;;;2.97;0.47;;;;;;;10.35;90.10;96412.94;5075040;28;42136;-86
2023/03/10 16:21:34;;;;;;;0.37;0.37;;;;;;;10.30;90.22;96431.09;5073726;28;41222;-83
2023/03/10 16:24:02;;;;;;;0.73;0.60;;;;;;;10.15;90.70;96432.56;5074991;28;39307;-83
2023/03/10 16:26:30;;;;;;;0.77;0.50;;;;;;;10.22;91.94;96454.84;5074687;28;40576;-83
2023/03/10 16:29:00;;;;;;;0.30;0.30;;;;;;;10.15;92.42;96456.38;5074749;28;44632;-87
2023/03/10 16:31:28;;;;;;;0.60;0.60;;;;;;;10.22;92.02;96461.94;5074882;28;41145;-83
2023/03/10 16:33:56;;;;;;;1.33;0.70;;;;;;;10.12;91.27;96475.22;5074847;28;41109;-85
2023/03/10 16:36:25;;;;;;;1.80;1.10;;;;;;;9.97;91.22;96447.63;5074550;28;43016;-84
2023/03/10 16:38:54;;;;;;;0.93;0.50;;;;;;;9.93;88.08;96492.03;5091546;28;41938;-85
2023/03/10 16:41:23;;;;;;;0.83;0.80;;;;;;;9.80;86.83;96493.38;5074849;28;42060;-85
2023/03/10 16:43:53;;;;;;;0.40;0.40;;;;;;;9.57;86.68;96485.03;5076915;28;39599;-85
2023/03/10 16:46:25;;;;;;;0.70;0.50;;;;;;;9.55;86.60;96511.59;5077953;28;42221;-84
2023/03/10 16:48:53;;;;;;;1.30;0.30;;;;;;;9.37;87.15;96494.88;5078030;28;41779;-85
2023/03/10 16:51:26;;;;;;;0.50;0.50;;;;;;;9.40;87.52;96515.69;5077917;28;41217;-85
2023/03/10 16:53:57;;;;;;;1.20;0.50;;;;;;;9.36;87.44;96525.72;5078493;28;39061;-87
2023/03/10 16:56:26;;;;;;;0.60;0.60;;;;;;;9.28;87.85;96506.28;5078081;28;41753;-85
2023/03/10 16:58:55;;;;;;;1.10;0.60;;;;;;;9.35;88.04;96528.50;5078017;28;41646;-86
2023/03/10 17:01:24;;;;;;;0.73;0.70;;;;;;;9.23;88.07;96513.81;5078021;28;41178;-86
2023/03/10 17:03:53;;;;;;;0.70;0.70;;;;;;;9.10;88.47;96523.88;5078000;28;38905;-87
2023/03/10 17:06:23;;;;;;;0.47;0.47;;;;;;;9.06;88.75;96527.78;5094305;28;42461;-87
2023/03/10 17:08:52;;;;;;;0.77;0.67;;;;;;;9.05;88.43;96563.06;5077889;28;41996;-84
2023/03/10 17:11:22;;;;;;;0.50;0.50;;;;;;;8.93;89.33;96544.75;5077817;28;41473;-84
2023/03/10 17:13:53;;;;;;;1.17;0.53;;;;;;;8.75;90.15;96545.63;5077809;28;39250;-85
2023/03/10 17:16:23;;;;;;;2.40;1.10;;;;;;;8.83;90.02;96561.56;5078058;28;40912;-84
2023/03/10 17:18:52;;;;;;;0.70;0.70;;;;;;;8.70;91.12;96538.13;5094408;28;43232;-84
2023/03/10 17:21:23;;;;;;;0.73;0.70;;;;;;;8.66;90.06;96568.38;5076576;28;40894;-85
2023/03/10 17:23:52;;;;;;;0.70;0.53;;;;;;;8.47;89.77;96557.84;5077507;28;40044;-84
2023/03/10 17:26:20;;;;;;;2.07;0.53;;;;;;;8.51;90.16;96590.91;5077549;28;40886;-85
2023/03/10 17:28:50;;;;;;;0.80;0.60;;;;;;;8.53;90.13;96573.94;5094537;28;42402;-81
2023/03/10 17:31:22;;;;;;;1.83;1.00;;;;;;;8.52;89.89;96592.56;5077428;28;40638;-83
2023/03/10 17:33:50;;;;;;;1.33;0.83;;;;;;;8.56;89.40;96588.66;5077978;28;39523;-85
2023/03/10 17:36:19;;;;;;;2.60;1.13;;;;;;;8.47;89.38;96578.97;5077106;28;42627;-85
2023/03/10 17:38:47;;;;;;;1.23;0.83;;;;;;;8.34;89.23;96576.59;5094336;28;43843;-84